createdAt,value
2022-12-29T00:00:22.332Z,73.94
2022-12-29T00:05:31.048Z,74.02
2022-12-29T00:10:39.586Z,73.91
2022-12-29T00:15:47.680Z,73.94
2022-12-29T00:21:17.258Z,74.02
2022-12-29T00:26:42.911Z,74.08
2022-12-29T00:32:09.558Z,73.84
2022-12-29T00:37:18.408Z,74.03
2022-12-29T00:42:44.908Z,74.07
2022-12-29T00:47:53.275Z,73.89
2022-12-29T00:53:01.507Z,73.92
2022-12-29T00:58:09.551Z,73.86
2022-12-29T01:03:17.824Z,73.79
2022-12-29T01:08:25.267Z,73.68
2022-12-29T01:13:33.546Z,73.75
2022-12-29T01:18:41.625Z,73.50
2022-12-29T01:23:50.029Z,73.64
2022-12-29T01:28:58.140Z,73.35
2022-12-29T01:34:07.319Z,73.37
2022-12-29T01:39:15.736Z,73.27
2022-12-29T01:44:54.822Z,73.15
2022-12-29T01:50:07.186Z,73.32
2022-12-29T01:55:13.623Z,73.31
2022-12-29T02:00:22.411Z,73.03
2022-12-29T02:05:37.448Z,73.00
2022-12-29T02:10:47.250Z,73.04
2022-12-29T02:16:06.345Z,73.09
2022-12-29T02:21:45.123Z,73.18
2022-12-29T02:27:27.209Z,73.13
2022-12-29T02:32:44.474Z,73.14
2022-12-29T02:38:04.309Z,73.11
2022-12-29T02:43:20.377Z,73.09
2022-12-29T02:48:32.774Z,73.04
2022-12-29T02:53:58.974Z,73.14
2022-12-29T02:59:07.526Z,72.91
2022-12-29T03:04:30.672Z,73.04
2022-12-29T03:09:49.795Z,72.93
2022-12-29T03:15:23.042Z,73.10
2022-12-29T03:20:41.223Z,73.26
2022-12-29T03:25:54.289Z,73.21
2022-12-29T03:31:06.038Z,73.20
2022-12-29T03:36:20.961Z,73.30
2022-12-29T03:41:33.389Z,73.29
2022-12-29T03:46:42.920Z,73.56
2022-12-29T03:51:52.064Z,73.65
2022-12-29T03:57:00.877Z,73.65
2022-12-29T04:02:18.910Z,73.78
2022-12-29T04:07:27.562Z,73.58
2022-12-29T04:12:36.559Z,73.74
2022-12-29T04:17:44.907Z,73.78
2022-12-29T04:22:59.796Z,73.91
2022-12-29T04:28:09.245Z,74.05
2022-12-29T04:33:27.909Z,73.94
2022-12-29T04:38:36.182Z,74.32
2022-12-29T04:43:45.820Z,74.12
2022-12-29T04:49:12.634Z,74.17
2022-12-29T04:54:32.994Z,74.25
2022-12-29T04:59:49.569Z,74.31
2022-12-29T05:05:00.544Z,74.21
2022-12-29T05:10:11.200Z,74.05
2022-12-29T05:15:18.608Z,74.16
2022-12-29T05:20:27.061Z,74.17
2022-12-29T05:25:35.338Z,74.19
2022-12-29T05:31:01.229Z,74.11
2022-12-29T05:36:12.905Z,74.08
2022-12-29T05:41:24.978Z,74.03
2022-12-29T05:47:08.485Z,74.15
2022-12-29T05:52:26.783Z,74.17
2022-12-29T05:57:35.209Z,74.13
2022-12-29T06:02:55.500Z,74.08
2022-12-29T06:08:03.723Z,73.99
2022-12-29T06:13:12.173Z,74.02
2022-12-29T06:18:22.525Z,74.03
2022-12-29T06:23:31.022Z,74.17
2022-12-29T06:28:40.468Z,74.12
2022-12-29T06:33:50.228Z,74.03
2022-12-29T06:38:59.511Z,73.95
2022-12-29T06:44:07.594Z,73.83
2022-12-29T06:49:31.131Z,73.82
2022-12-29T06:54:39.264Z,73.77
2022-12-29T06:59:47.548Z,73.90
2022-12-29T07:04:54.938Z,73.70
2022-12-29T07:10:02.837Z,73.68
2022-12-29T07:15:13.607Z,73.76
2022-12-29T07:20:26.807Z,73.94
2022-12-29T07:25:36.464Z,73.73
2022-12-29T07:30:44.619Z,73.70
2022-12-29T07:35:52.902Z,73.71
2022-12-29T07:41:03.276Z,73.62
2022-12-29T07:46:54.138Z,73.62
2022-12-29T07:51:41.072Z,73.60
2022-12-29T07:56:49.727Z,73.60
2022-12-29T08:01:58.492Z,73.58
2022-12-29T08:07:06.785Z,73.71
2022-12-29T08:12:16.061Z,73.50
2022-12-29T08:17:24.332Z,73.78
2022-12-29T08:22:32.578Z,73.65
2022-12-29T08:27:41.337Z,73.46
2022-12-29T08:32:50.124Z,73.68
2022-12-29T08:37:58.874Z,73.59
2022-12-29T08:43:08.756Z,73.49
2022-12-29T08:48:21.193Z,73.46
2022-12-29T08:53:26.881Z,73.57
2022-12-29T08:58:35.950Z,73.72
2022-12-29T09:09:13.701Z,73.38
2022-12-29T09:14:22.829Z,73.59
2022-12-29T09:19:31.222Z,73.32
2022-12-29T09:24:39.325Z,73.42
2022-12-29T09:29:47.648Z,73.49
2022-12-29T09:34:55.883Z,73.39
2022-12-29T09:40:04.191Z,73.38
2022-12-29T09:45:18.534Z,73.45
2022-12-29T09:50:31.737Z,73.32
2022-12-29T09:55:43.275Z,73.20
2022-12-29T10:00:56.910Z,73.45
2022-12-29T10:06:14.894Z,73.30
2022-12-29T10:11:36.635Z,73.31
2022-12-29T10:16:52.770Z,72.94
2022-12-29T10:22:12.952Z,73.00
2022-12-29T10:27:21.529Z,73.10
2022-12-29T10:32:37.778Z,72.97
2022-12-29T10:37:51.924Z,72.89
2022-12-29T10:43:21.298Z,72.57
2022-12-29T10:48:33.875Z,72.93
2022-12-29T10:53:47.809Z,72.91
2022-12-29T10:58:57.578Z,72.80
2022-12-29T11:04:11.676Z,72.65
2022-12-29T11:09:36.606Z,72.58
2022-12-29T11:15:03.045Z,72.54
2022-12-29T11:20:30.545Z,72.81
2022-12-29T11:25:38.808Z,72.56
2022-12-29T11:30:47.570Z,72.41
2022-12-29T11:36:00.016Z,72.18
2022-12-29T11:41:13.799Z,72.33
2022-12-29T11:46:25.931Z,72.20
2022-12-29T11:51:39.993Z,72.21
2022-12-29T11:56:49.115Z,71.94
2022-12-29T12:01:57.588Z,72.15
2022-12-29T12:07:15.516Z,71.95
2022-12-29T12:12:30.634Z,71.77
2022-12-29T12:17:46.709Z,71.72
2022-12-29T12:23:05.657Z,71.81
2022-12-29T12:28:23.511Z,71.59
2022-12-29T12:33:36.189Z,71.40
2022-12-29T12:38:54.829Z,71.28
2022-12-29T12:44:13.846Z,71.19
2022-12-29T12:50:10.164Z,70.95
2022-12-29T12:55:42.009Z,70.51
2022-12-29T13:01:02.532Z,70.38
2022-12-29T13:06:24.448Z,70.23
2022-12-29T13:11:44.705Z,70.36
2022-12-29T13:17:05.065Z,70.14
2022-12-29T13:22:22.279Z,69.96
2022-12-29T13:27:38.142Z,70.19
2022-12-29T13:32:59.895Z,69.73
2022-12-29T13:38:14.094Z,69.78
2022-12-29T13:43:24.001Z,69.82
2022-12-29T13:48:44.957Z,69.96
2022-12-29T13:54:04.734Z,69.60
2022-12-29T13:59:21.493Z,69.32
2022-12-29T14:04:34.734Z,69.26
2022-12-29T14:09:52.969Z,69.42
2022-12-29T14:15:10.302Z,69.27
2022-12-29T14:20:27.312Z,69.40
2022-12-29T14:26:00.296Z,69.15
2022-12-29T14:31:31.128Z,68.86
2022-12-29T14:36:41.431Z,69.04
2022-12-29T14:41:49.725Z,68.91
2022-12-29T14:47:04.785Z,68.84
2022-12-29T14:52:21.382Z,68.62
2022-12-29T14:57:40.262Z,68.52
2022-12-29T15:02:52.182Z,68.28
2022-12-29T15:08:03.377Z,68.53
2022-12-29T15:13:21.004Z,68.21
2022-12-29T15:18:34.462Z,68.11
2022-12-29T15:23:42.361Z,68.07
2022-12-29T15:28:51.169Z,68.02
2022-12-29T15:34:13.397Z,67.85
2022-12-29T15:39:31.216Z,67.64
2022-12-29T15:44:42.703Z,67.64
2022-12-29T15:49:54.246Z,67.73
2022-12-29T15:55:03.706Z,67.68
2022-12-29T16:00:27.761Z,67.69
2022-12-29T16:05:40.254Z,67.64
2022-12-29T16:10:47.338Z,67.35
2022-12-29T16:15:59.711Z,67.15
2022-12-29T16:21:09.385Z,67.06
2022-12-29T16:26:21.876Z,67.14
2022-12-29T16:31:38.196Z,67.06
2022-12-29T16:36:59.503Z,67.07
2022-12-29T16:42:50.565Z,67.10
2022-12-29T16:48:20.808Z,66.94
2022-12-29T16:53:29.944Z,66.74
2022-12-29T16:58:38.984Z,66.82
2022-12-29T17:03:51.407Z,66.74
2022-12-29T17:09:00.443Z,66.66
2022-12-29T17:14:16.336Z,66.48
2022-12-29T17:19:31.253Z,66.42
2022-12-29T17:24:40.396Z,66.24
2022-12-29T17:29:48.623Z,66.19
2022-12-29T17:34:56.792Z,66.13
2022-12-29T17:40:06.369Z,66.13
2022-12-29T17:45:18.823Z,65.87
2022-12-29T17:50:30.203Z,65.97
2022-12-29T17:55:38.878Z,66.19
2022-12-29T18:00:47.388Z,65.98
2022-12-29T18:05:55.623Z,66.02
2022-12-29T18:11:04.634Z,65.78
2022-12-29T18:16:15.046Z,65.82
2022-12-29T18:21:25.355Z,65.89
2022-12-29T18:26:36.022Z,65.75
2022-12-29T18:31:44.271Z,65.59
2022-12-29T18:36:53.440Z,65.60
2022-12-29T18:42:01.647Z,65.46
2022-12-29T18:47:10.478Z,65.44
2022-12-29T18:52:19.567Z,65.28
2022-12-29T18:57:30.958Z,65.75
2022-12-29T19:02:38.825Z,65.46
2022-12-29T19:07:47.469Z,65.44
2022-12-29T19:12:56.883Z,65.49
2022-12-29T19:18:42.443Z,65.56
2022-12-29T19:23:36.907Z,65.23
2022-12-29T19:28:45.065Z,65.27
2022-12-29T19:33:54.108Z,65.25
2022-12-29T19:39:02.848Z,65.34
2022-12-29T19:44:11.579Z,65.50
2022-12-29T19:49:20.573Z,65.70
2022-12-29T19:54:28.802Z,65.44
2022-12-29T19:59:36.939Z,65.48
2022-12-29T20:04:46.136Z,65.47
2022-12-29T20:09:54.563Z,65.58
2022-12-29T20:15:03.156Z,65.59
2022-12-29T20:20:14.610Z,65.77
2022-12-29T20:30:59.363Z,66.50
2022-12-29T20:36:11.855Z,66.75
2022-12-29T20:41:20.473Z,66.77
2022-12-29T20:46:35.398Z,67.02
2022-12-29T20:52:05.604Z,67.17
2022-12-29T20:57:15.663Z,67.04
2022-12-29T21:02:26.047Z,67.20
2022-12-29T21:07:33.440Z,67.25
2022-12-29T21:12:41.659Z,67.54
2022-12-29T21:17:49.260Z,67.46
2022-12-29T21:22:58.022Z,67.65
2022-12-29T21:28:06.569Z,67.50
2022-12-29T21:33:16.242Z,67.29
2022-12-29T21:38:24.404Z,67.14
2022-12-29T21:43:32.596Z,67.34
2022-12-29T21:48:40.799Z,67.08
2022-12-29T21:53:49.099Z,67.02
2022-12-29T21:59:15.249Z,67.02
2022-12-29T22:04:42.670Z,67.05
2022-12-29T22:10:09.444Z,66.81
2022-12-29T22:15:17.986Z,66.70
2022-12-29T22:20:28.114Z,66.92
2022-12-29T22:25:37.002Z,66.82
2022-12-29T22:30:45.289Z,66.92
2022-12-29T22:35:54.162Z,66.87
2022-12-29T22:41:03.812Z,66.97
2022-12-29T22:46:11.097Z,67.13
2022-12-29T22:51:19.207Z,67.20
2022-12-29T22:56:27.356Z,67.14
2022-12-29T23:01:35.617Z,67.07
2022-12-29T23:06:44.051Z,67.18
2022-12-29T23:11:53.803Z,67.13
2022-12-29T23:17:01.033Z,67.29
2022-12-29T23:22:08.539Z,67.37
2022-12-29T23:27:18.458Z,67.40
2022-12-29T23:32:26.621Z,67.48
2022-12-29T23:37:35.135Z,67.54
2022-12-29T23:42:43.211Z,67.39
2022-12-29T23:47:51.380Z,67.55
2022-12-29T23:52:59.981Z,67.34
2022-12-29T23:58:08.290Z,67.15
